Time;durP1;ratioP1;P1;durP2;ratioP2;P2;SDS_P1;SDS_P2;PMS_P1;PMS_P2;Temp;Humidity;BMP_temperature;BMP_pressure;BME280_temperature;BME280_humidity;BME280_pressure;Samples;Min_cycle;Max_cycle;Signal;HPM_P1;HPM_P2
2020/12/08 00:01:44;;;;;;;11.85;5.65;;;3.30;99.90;;;;;;5072778;28;20404;-47
2020/12/08 00:04:10;;;;;;;7.65;4.43;;;3.30;99.90;;;;;;5071198;28;20053;-47
2020/12/08 00:06:37;;;;;;;10.07;5.35;;;3.30;99.90;;;;;;5070105;28;20078;-47
2020/12/08 00:09:04;;;;;;;10.85;5.53;;;3.20;99.90;;;;;;5070765;28;20122;-47
2020/12/08 00:11:30;;;;;;;7.50;3.33;;;3.20;99.90;;;;;;5067950;28;20040;-48
2020/12/08 00:13:57;;;;;;;7.55;4.15;;;3.20;99.90;;;;;;5064143;28;20040;-47
2020/12/08 00:16:24;;;;;;;3.47;1.83;;;3.20;99.90;;;;;;5076503;28;20044;-47
2020/12/08 00:18:50;;;;;;;1.42;1.20;;;3.30;99.90;;;;;;5077625;28;20048;-47
2020/12/08 00:21:17;;;;;;;5.78;2.58;;;3.30;99.90;;;;;;5077538;28;20044;-47
2020/12/08 00:23:45;;;;;;;7.90;4.32;;;3.40;99.90;;;;;;5069801;28;20044;-47
2020/12/08 00:26:13;;;;;;;3.67;1.67;;;3.40;99.90;;;;;;5065393;28;20124;-47
2020/12/08 00:28:40;;;;;;;1.77;1.40;;;3.40;99.90;;;;;;5068686;28;20377;-47
2020/12/08 00:31:06;;;;;;;3.25;1.20;;;3.50;99.90;;;;;;5070974;28;20481;-47
2020/12/08 00:33:33;;;;;;;1.95;1.67;;;3.50;99.90;;;;;;5070590;28;20380;-47
2020/12/08 00:35:59;;;;;;;3.63;1.88;;;3.50;99.90;;;;;;5069720;28;20053;-47
2020/12/08 00:38:26;;;;;;;4.65;2.63;;;3.50;99.90;;;;;;5073422;28;20064;-48
2020/12/08 00:40:53;;;;;;;5.07;4.50;;;3.50;99.90;;;;;;5069282;28;20520;-47
2020/12/08 00:43:19;;;;;;;14.38;7.47;;;3.50;99.90;;;;;;5071532;28;20045;-48
2020/12/08 00:45:46;;;;;;;26.02;9.07;;;3.40;99.90;;;;;;5070148;28;20067;-47
2020/12/08 00:48:13;;;;;;;15.48;8.25;;;3.40;99.90;;;;;;5044724;28;20128;-47
2020/12/08 00:50:39;;;;;;;16.35;9.13;;;3.40;99.90;;;;;;5069325;28;20041;-47
2020/12/08 00:53:06;;;;;;;10.32;6.78;;;3.30;99.90;;;;;;5069663;28;20496;-47
2020/12/08 00:55:32;;;;;;;15.63;8.82;;;3.30;99.90;;;;;;5066375;28;20048;-47
2020/12/08 00:57:59;;;;;;;22.08;9.02;;;3.30;99.90;;;;;;5067991;28;20040;-47
2020/12/08 01:00:25;;;;;;;12.60;5.60;;;3.40;99.90;;;;;;5059527;28;20060;-47
2020/12/08 01:02:52;;;;;;;7.63;4.78;;;3.40;99.90;;;;;;5068771;28;20044;-47
2020/12/08 01:05:18;;;;;;;16.23;5.50;;;3.40;99.90;;;;;;5071106;28;20052;-46
2020/12/08 01:07:45;;;;;;;9.80;4.10;;;3.40;99.90;;;;;;5065546;28;20064;-47
2020/12/08 01:10:12;;;;;;;9.25;4.90;;;3.40;99.90;;;;;;5076512;28;20166;-47
2020/12/08 01:12:39;;;;;;;10.18;4.57;;;3.40;99.90;;;;;;5065630;28;20056;-47
2020/12/08 01:15:06;;;;;;;9.30;5.75;;;3.30;99.90;;;;;;5060901;28;20037;-47
2020/12/08 01:17:33;;;;;;;8.45;5.20;;;3.40;99.90;;;;;;5069145;28;20048;-47
2020/12/08 01:19:59;;;;;;;5.90;3.92;;;3.40;99.90;;;;;;5069302;28;20538;-47
2020/12/08 01:22:26;;;;;;;7.43;3.38;;;3.40;99.90;;;;;;5072578;28;20044;-48
2020/12/08 01:24:53;;;;;;;4.68;2.50;;;3.40;99.90;;;;;;5070585;28;20083;-47
2020/12/08 01:27:19;;;;;;;5.45;3.83;;;3.40;99.90;;;;;;5072707;28;20048;-48
2020/12/08 01:29:45;;;;;;;4.55;3.10;;;3.40;99.90;;;;;;5066330;28;20053;-47
2020/12/08 01:32:12;;;;;;;5.30;3.20;;;3.40;99.90;;;;;;5071937;28;20060;-47
2020/12/08 01:34:40;;;;;;;4.82;3.05;;;3.50;99.90;;;;;;5074502;28;20389;-47
2020/12/08 01:37:07;;;;;;;3.25;1.85;;;3.50;99.90;;;;;;5068484;28;20048;-47
2020/12/08 01:39:33;;;;;;;3.55;1.73;;;3.50;99.90;;;;;;5083624;28;20101;-46
2020/12/08 01:42:00;;;;;;;4.38;1.15;;;3.60;99.90;;;;;;5073565;28;20384;-47
2020/12/08 01:44:27;;;;;;;2.22;1.42;;;3.60;99.90;;;;;;5073185;28;20503;-47
2020/12/08 01:46:53;;;;;;;1.75;1.20;;;3.70;99.90;;;;;;5074808;28;20424;-47
2020/12/08 01:49:20;;;;;;;3.58;1.50;;;3.70;99.90;;;;;;5067818;28;20049;-48
2020/12/08 01:51:46;;;;;;;3.72;1.70;;;3.70;99.90;;;;;;5084345;28;20056;-47
2020/12/08 01:54:14;;;;;;;2.55;1.35;;;3.80;99.90;;;;;;5076950;28;20052;-47
2020/12/08 01:56:41;;;;;;;3.70;1.50;;;3.80;99.90;;;;;;5087593;28;20047;-47
2020/12/08 01:59:07;;;;;;;3.67;1.27;;;3.80;99.90;;;;;;5071315;28;20438;-47
2020/12/08 02:01:34;;;;;;;2.20;1.20;;;3.80;99.90;;;;;;5072264;28;20102;-48
2020/12/08 02:04:00;;;;;;;4.47;1.50;;;3.80;99.90;;;;;;5067083;28;20069;-48
2020/12/08 02:06:27;;;;;;;1.20;1.00;;;3.90;99.90;;;;;;5062647;28;20094;-48
2020/12/08 02:08:54;;;;;;;1.80;1.27;;;4.00;99.90;;;;;;5079557;28;20130;-47
2020/12/08 02:11:21;;;;;;;2.63;1.38;;;4.00;99.90;;;;;;5079009;28;20045;-49
2020/12/08 02:13:47;;;;;;;12.88;4.22;;;4.00;99.90;;;;;;5074168;28;20041;-48
2020/12/08 02:16:14;;;;;;;6.50;4.10;;;3.90;99.90;;;;;;5072506;28;20049;-48
2020/12/08 02:18:41;;;;;;;18.30;5.85;;;3.90;99.90;;;;;;5073675;28;20460;-48
2020/12/08 02:21:08;;;;;;;10.68;4.03;;;3.90;99.90;;;;;;5067346;28;20044;-48
2020/12/08 02:23:35;;;;;;;4.63;2.45;;;3.90;99.90;;;;;;5067984;28;20049;-48
2020/12/08 02:26:05;;;;;;;5.75;3.55;;;3.90;99.90;;;;;;5080822;28;20067;-48
2020/12/08 02:28:33;;;;;;;3.92;2.72;;;3.90;99.90;;;;;;5071787;28;20480;-47
2020/12/08 02:30:59;;;;;;;5.20;1.95;;;4.00;99.90;;;;;;5060762;28;20059;-48
2020/12/08 02:33:30;;;;;;;0.80;0.80;;;4.00;99.90;;;;;;5071178;28;20491;-49
2020/12/08 02:36:00;;;;;;;1.80;0.93;;;4.10;99.90;;;;;;5066246;28;20045;-48
2020/12/08 02:38:27;;;;;;;1.08;0.70;;;4.20;99.90;;;;;;5071607;28;20041;-48
2020/12/08 02:40:54;;;;;;;4.45;1.20;;;4.20;99.90;;;;;;5067644;28;20049;-48
2020/12/08 02:43:22;;;;;;;1.95;0.90;;;4.20;99.90;;;;;;5073052;28;20055;-49
2020/12/08 02:45:49;;;;;;;1.45;0.85;;;4.20;99.90;;;;;;5071173;28;20492;-48
2020/12/08 02:48:15;;;;;;;1.17;0.73;;;4.20;99.90;;;;;;5058593;28;20049;-48
2020/12/08 02:50:57;;;;;;;3.65;1.30;;;4.30;99.90;;;;;;5067850;28;20131;-48
2020/12/08 02:53:24;;;;;;;2.15;0.80;;;4.30;99.90;;;;;;5077515;28;20253;-48
2020/12/08 02:55:51;;;;;;;2.78;1.30;;;4.30;99.90;;;;;;5081940;28;20071;-48
2020/12/08 02:58:17;;;;;;;1.25;0.80;;;4.30;99.90;;;;;;5081328;28;20492;-47
2020/12/08 03:00:44;;;;;;;3.53;1.25;;;4.30;99.90;;;;;;5063933;28;20492;-48
2020/12/08 03:03:10;;;;;;;3.50;1.20;;;4.40;99.90;;;;;;5065974;28;21509;-48
2020/12/08 03:05:37;;;;;;;1.38;1.05;;;4.40;99.90;;;;;;5070876;28;20055;-48
2020/12/08 03:08:04;;;;;;;3.13;1.05;;;4.40;99.90;;;;;;5069695;28;20048;-48
2020/12/08 03:10:31;;;;;;;1.27;0.70;;;4.40;99.90;;;;;;5070583;28;20052;-48
2020/12/08 03:12:58;;;;;;;2.38;0.60;;;4.50;99.90;;;;;;5071808;28;20432;-50
2020/12/08 03:15:25;;;;;;;0.40;0.30;;;4.50;99.90;;;;;;5063112;28;20412;-48
2020/12/08 03:17:51;;;;;;;1.33;0.60;;;4.60;99.90;;;;;;5059237;28;20049;-48
2020/12/08 03:20:18;;;;;;;1.42;1.00;;;4.70;99.90;;;;;;5067228;28;20381;-48
2020/12/08 03:22:44;;;;;;;1.13;0.80;;;4.60;99.90;;;;;;5071991;28;20048;-48
2020/12/08 03:25:11;;;;;;;0.85;0.60;;;4.60;99.90;;;;;;5072059;28;20052;-48
2020/12/08 03:27:37;;;;;;;1.98;0.65;;;4.70;99.90;;;;;;5080039;28;20045;-48
2020/12/08 03:30:05;;;;;;;8.93;2.40;;;4.70;99.90;;;;;;5067253;28;20396;-48
2020/12/08 03:32:32;;;;;;;3.42;1.45;;;4.60;99.90;;;;;;5061704;28;20041;-47
2020/12/08 03:34:58;;;;;;;3.75;0.95;;;4.60;99.90;;;;;;5069614;28;20045;-47
2020/12/08 03:37:26;;;;;;;0.40;0.10;;;4.60;99.90;;;;;;5074441;28;20048;-47
2020/12/08 03:39:52;;;;;;;1.10;0.35;;;4.80;99.90;;;;;;5072586;28;20425;-48
2020/12/08 03:42:19;;;;;;;2.97;1.42;;;4.90;99.90;;;;;;5070361;28;20060;-48
2020/12/08 03:44:46;;;;;;;2.00;1.80;;;4.80;99.90;;;;;;5070962;28;20060;-48
2020/12/08 03:47:12;;;;;;;0.70;0.50;;;4.80;99.90;;;;;;5069574;28;20063;-48
2020/12/08 03:49:39;;;;;;;2.50;0.80;;;4.80;99.90;;;;;;5070196;28;20059;-48
2020/12/08 03:52:05;;;;;;;1.00;0.70;;;4.80;99.90;;;;;;5070705;28;20048;-48
2020/12/08 03:54:32;;;;;;;1.55;1.00;;;4.80;99.90;;;;;;5066088;28;20048;-48
2020/12/08 03:56:58;;;;;;;2.03;0.60;;;4.70;99.90;;;;;;5072965;28;20044;-48
2020/12/08 03:59:25;;;;;;;1.65;0.60;;;4.80;99.90;;;;;;5068604;28;20382;-48
2020/12/08 04:01:52;;;;;;;1.42;0.60;;;4.80;99.90;;;;;;5064161;28;20056;-49
2020/12/08 04:04:19;;;;;;;1.42;0.80;;;4.90;99.90;;;;;;5070807;28;20059;-48
2020/12/08 04:06:47;;;;;;;3.65;0.80;;;4.80;99.90;;;;;;5076637;28;20048;-48
2020/12/08 04:09:14;;;;;;;2.45;0.77;;;4.80;99.90;;;;;;5060103;28;20052;-49
2020/12/08 04:11:40;;;;;;;1.25;0.80;;;4.80;99.90;;;;;;5062376;28;20055;-50
2020/12/08 04:14:07;;;;;;;3.50;0.60;;;4.80;99.90;;;;;;5072087;28;20048;-48
2020/12/08 04:16:36;;;;;;;0.20;0.20;;;4.90;99.90;;;;;;5069810;28;20048;-48
2020/12/08 04:19:05;;;;;;;0.17;0.10;;;4.90;99.90;;;;;;5060933;28;20045;-49
2020/12/08 04:21:33;;;;;;;0.10;0.10;;;5.00;99.90;;;;;;5072002;28;20059;-48
2020/12/08 04:24:00;;;;;;;0.20;0.05;;;5.20;99.90;;;;;;5069427;28;20089;-47
2020/12/08 04:26:31;;;;;;;0.17;0.10;;;5.40;99.90;;;;;;5081209;28;20567;-48
2020/12/08 04:28:59;;;;;;;0.20;0.10;;;5.40;99.90;;;;;;5075450;28;20048;-47
2020/12/08 04:31:27;;;;;;;1.40;0.20;;;5.40;99.90;;;;;;5070900;28;20408;-48
2020/12/08 04:33:54;;;;;;;0.13;0.13;;;5.30;99.90;;;;;;5069426;28;20484;-47
2020/12/08 04:36:23;;;;;;;0.00;0.00;;;5.40;99.90;;;;;;5077905;28;20045;-48
2020/12/08 04:38:50;;;;;;;1.13;0.00;;;5.50;99.90;;;;;;5069790;28;20354;-48
2020/12/08 04:41:24;;;;;;;0.00;0.00;;;5.60;99.90;;;;;;5066490;28;20064;-48
2020/12/08 04:43:54;;;;;;;0.08;0.00;;;5.60;99.90;;;;;;5062821;28;20052;-48
2020/12/08 04:46:21;;;;;;;0.43;0.30;;;5.60;99.90;;;;;;5065345;28;20045;-47
2020/12/08 04:48:49;;;;;;;1.48;0.77;;;5.50;99.90;;;;;;5071283;28;20056;-47
2020/12/08 04:51:17;;;;;;;1.75;0.60;;;5.40;99.90;;;;;;5071118;28;20053;-48
2020/12/08 04:53:46;;;;;;;1.58;0.50;;;5.40;99.90;;;;;;5065071;28;20359;-48
2020/12/08 04:56:13;;;;;;;1.05;0.68;;;5.30;99.90;;;;;;5072013;28;20047;-48
2020/12/08 04:58:42;;;;;;;1.77;0.90;;;5.30;99.90;;;;;;5065663;28;20458;-48
2020/12/08 05:01:10;;;;;;;2.05;0.60;;;5.30;99.90;;;;;;5075438;28;20052;-47
2020/12/08 05:03:40;;;;;;;1.50;0.77;;;5.30;99.90;;;;;;5068884;28;20064;-48
2020/12/08 05:06:14;;;;;;;0.40;0.40;;;5.20;99.90;;;;;;5082641;28;20058;-49
2020/12/08 05:08:40;;;;;;;0.93;0.32;;;5.20;99.90;;;;;;5055251;28;20075;-48
2020/12/08 05:11:08;;;;;;;0.52;0.30;;;5.20;99.90;;;;;;5061055;28;20439;-47
2020/12/08 05:13:34;;;;;;;0.40;0.40;;;5.20;99.90;;;;;;5064390;28;20375;-50
2020/12/08 05:16:06;;;;;;;0.93;0.20;;;5.20;99.90;;;;;;5065297;28;20488;-48
2020/12/08 05:18:34;;;;;;;0.20;0.20;;;5.30;99.90;;;;;;5073941;28;20036;-48
2020/12/08 05:21:10;;;;;;;0.20;0.20;;;5.30;99.90;;;;;;5074297;28;20055;-48
2020/12/08 05:23:44;;;;;;;0.17;0.17;;;5.30;99.90;;;;;;5080108;28;20067;-48
2020/12/08 05:26:15;;;;;;;0.50;0.30;;;5.30;99.90;;;;;;5080246;28;20413;-48
2020/12/08 05:28:43;;;;;;;0.30;0.20;;;5.30;99.90;;;;;;5083505;28;20056;-48
2020/12/08 05:31:10;;;;;;;0.22;0.20;;;5.40;99.90;;;;;;5072659;28;20053;-48
2020/12/08 05:33:47;;;;;;;0.30;0.20;;;5.40;99.90;;;;;;5076130;28;20487;-51
2020/12/08 05:36:16;;;;;;;0.57;0.20;;;5.40;99.90;;;;;;5067351;28;20040;-50
2020/12/08 05:38:49;;;;;;;2.10;0.10;;;5.40;99.90;;;;;;5069023;28;20496;-48
2020/12/08 05:41:16;;;;;;;;;;;5.40;99.90;;;;;;5070647;28;20355;-48
2020/12/08 05:43:43;;;;;;;0.20;0.10;;;5.40;99.90;;;;;;5063985;28;19971;-48
2020/12/08 05:46:10;;;;;;;0.43;0.20;;;5.30;99.90;;;;;;5073799;28;20354;-48
2020/12/08 05:48:37;;;;;;;1.10;0.30;;;5.40;99.90;;;;;;5074347;28;20049;-47
2020/12/08 05:51:06;;;;;;;0.50;0.20;;;5.40;99.90;;;;;;5071796;28;20519;-48
2020/12/08 05:53:34;;;;;;;0.20;0.17;;;5.40;99.90;;;;;;5072721;28;20074;-48
2020/12/08 05:56:08;;;;;;;0.10;0.10;;;5.40;99.90;;;;;;5073677;28;20049;-48
2020/12/08 05:58:35;;;;;;;0.32;0.10;;;5.40;99.90;;;;;;5064682;28;20556;-47
2020/12/08 06:01:06;;;;;;;1.80;0.10;;;5.40;99.90;;;;;;5069836;28;20056;-48
2020/12/08 06:03:35;;;;;;;0.85;0.10;;;5.50;99.90;;;;;;5073151;28;20051;-48
2020/12/08 06:06:19;;;;;;;0.10;0.10;;;5.50;99.90;;;;;;5074135;28;20442;-49
2020/12/08 06:08:47;;;;;;;0.10;0.08;;;5.50;99.90;;;;;;5071776;28;20064;-47
2020/12/08 06:11:14;;;;;;;0.10;0.00;;;5.50;99.90;;;;;;5071921;28;20045;-48
2020/12/08 06:13:50;;;;;;;0.13;0.10;;;5.50;99.90;;;;;;5062762;28;20385;-48
2020/12/08 06:16:19;;;;;;;0.15;0.10;;;5.50;99.90;;;;;;5063747;28;20036;-48
2020/12/08 06:18:47;;;;;;;0.10;0.10;;;5.50;99.90;;;;;;5072510;28;20354;-47
2020/12/08 06:21:18;;;;;;;0.90;0.10;;;5.50;99.90;;;;;;5070374;28;20059;-48
2020/12/08 06:23:46;;;;;;;0.10;0.10;;;5.50;99.90;;;;;;5060689;28;20052;-47
2020/12/08 06:26:20;;;;;;;0.52;0.20;;;5.50;99.90;;;;;;5077047;28;20056;-48
2020/12/08 06:28:46;;;;;;;1.02;0.40;;;5.50;99.90;;;;;;5081837;28;20056;-47
2020/12/08 06:31:12;;;;;;;1.30;0.40;;;5.50;99.90;;;;;;5061803;28;20374;-48
2020/12/08 06:33:56;;;;;;;0.30;0.20;;;5.50;99.90;;;;;;5070680;28;20048;-48
2020/12/08 06:36:25;;;;;;;0.47;0.38;;;5.50;99.90;;;;;;5068270;28;20079;-51
2020/12/08 06:39:07;;;;;;;0.10;0.10;;;5.50;99.90;;;;;;5073928;28;20082;-48
2020/12/08 06:41:37;;;;;;;0.28;0.10;;;5.50;99.90;;;;;;5071260;28;20508;-47
2020/12/08 06:44:04;;;;;;;0.10;0.00;;;5.50;99.90;;;;;;5072453;28;20458;-47
2020/12/08 06:46:35;;;;;;;0.10;0.10;;;5.50;99.90;;;;;;5067090;28;20155;-48
2020/12/08 06:49:06;;;;;;;0.52;0.35;;;5.50;99.90;;;;;;5073038;28;20449;-48
2020/12/08 06:51:34;;;;;;;15.60;4.72;;;5.60;99.90;;;;;;5066337;28;20059;-48
2020/12/08 06:54:21;;;;;;;0.73;0.57;;;5.60;99.90;;;;;;5057846;28;20044;-48
2020/12/08 06:56:47;;;;;;;0.28;0.20;;;5.60;99.90;;;;;;5073408;28;20837;-48
2020/12/08 06:59:24;;;;;;;0.32;0.08;;;5.60;99.90;;;;;;5068797;28;20044;-48
2020/12/08 07:01:58;;;;;;;1.45;0.32;;;5.70;99.90;;;;;;5069908;28;20135;-48
2020/12/08 07:04:28;;;;;;;0.70;0.50;;;5.70;99.90;;;;;;5070489;28;20044;-49
2020/12/08 07:06:58;;;;;;;1.80;0.70;;;5.70;99.90;;;;;;5073268;28;20044;-48
2020/12/08 07:09:25;;;;;;;0.38;0.30;;;5.60;99.90;;;;;;5072229;28;20051;-49
2020/12/08 07:12:04;;;;;;;0.85;0.70;;;5.70;99.90;;;;;;5070309;28;20447;-50
2020/12/08 07:14:31;;;;;;;3.08;0.40;;;5.70;99.90;;;;;;5072626;28;20045;-50
2020/12/08 07:16:58;;;;;;;1.08;0.50;;;5.60;99.90;;;;;;5070313;28;20042;-48
2020/12/08 07:19:28;;;;;;;2.85;1.35;;;5.60;99.90;;;;;;5077577;28;20053;-48
2020/12/08 07:22:00;;;;;;;3.20;1.23;;;5.60;99.90;;;;;;5074190;28;20051;-49
2020/12/08 07:24:26;;;;;;;10.57;1.05;;;5.60;99.90;;;;;;5071857;28;20048;-50
2020/12/08 07:26:59;;;;;;;62.53;4.03;;;5.60;99.90;;;;;;5063186;28;20053;-48
2020/12/08 07:29:26;;;;;;;6.57;1.30;;;5.60;99.90;;;;;;5064766;28;20483;-49
2020/12/08 07:31:52;;;;;;;1.67;1.52;;;5.70;99.90;;;;;;5057980;28;20500;-49
2020/12/08 07:34:20;;;;;;;5.43;2.83;;;5.70;99.90;;;;;;5072221;28;20461;-49
2020/12/08 07:36:46;;;;;;;1.08;0.98;;;5.60;99.90;;;;;;5078513;28;20052;-48
2020/12/08 07:39:19;;;;;;;4.70;4.30;;;5.70;99.90;;;;;;5073309;28;20052;-48
2020/12/08 07:41:46;;;;;;;2.03;1.92;;;5.70;99.90;;;;;;5070495;28;20090;-48
2020/12/08 07:44:17;;;;;;;2.55;2.15;;;5.70;99.90;;;;;;5060926;28;20049;-49
2020/12/08 07:46:52;;;;;;;42.55;23.75;;;5.70;99.90;;;;;;5073408;28;20117;-49
2020/12/08 07:49:19;;;;;;;6.15;3.22;;;5.80;99.90;;;;;;5072249;28;20417;-48
2020/12/08 07:51:50;;;;;;;14.43;8.65;;;5.80;99.90;;;;;;5070405;28;20048;-48
2020/12/08 07:54:18;;;;;;;6.68;4.40;;;5.80;99.90;;;;;;5071689;28;20397;-49
2020/12/08 07:56:45;;;;;;;3.85;2.67;;;5.80;99.90;;;;;;5070121;28;20128;-48
2020/12/08 07:59:11;;;;;;;7.18;2.30;;;5.80;99.90;;;;;;5072380;28;20055;-49
2020/12/08 08:01:43;;;;;;;4.72;2.22;;;5.90;99.90;;;;;;5076517;28;20400;-49
2020/12/08 08:04:10;;;;;;;2.63;1.52;;;5.90;99.90;;;;;;5069452;28;20052;-48
2020/12/08 08:06:38;;;;;;;2.22;1.67;;;5.90;99.90;;;;;;5080289;28;20159;-49
2020/12/08 08:09:06;;;;;;;4.30;1.42;;;5.90;99.90;;;;;;5073440;28;20127;-49
2020/12/08 08:11:34;;;;;;;3.95;1.30;;;5.90;99.90;;;;;;5077763;28;20055;-49
2020/12/08 08:14:00;;;;;;;1.35;0.80;;;5.90;99.90;;;;;;5068249;28;20052;-48
2020/12/08 08:16:28;;;;;;;1.33;0.70;;;5.90;99.90;;;;;;5059657;28;20048;-48
2020/12/08 08:18:56;;;;;;;1.00;0.63;;;5.90;99.90;;;;;;5069970;28;20054;-49
2020/12/08 08:21:23;;;;;;;1.50;0.98;;;6.00;99.90;;;;;;5068943;28;20551;-49
2020/12/08 08:23:49;;;;;;;1.27;0.80;;;6.00;99.90;;;;;;5074909;28;20066;-49
2020/12/08 08:26:16;;;;;;;2.17;1.20;;;6.00;99.90;;;;;;5066997;28;20049;-49
2020/12/08 08:28:42;;;;;;;1.02;0.70;;;6.00;99.90;;;;;;5066010;28;20389;-48
2020/12/08 08:31:09;;;;;;;0.68;0.52;;;6.10;99.90;;;;;;5075038;28;20381;-49
2020/12/08 08:33:35;;;;;;;1.10;0.60;;;6.10;99.90;;;;;;5071806;28;20047;-50
2020/12/08 08:36:02;;;;;;;0.65;0.50;;;6.10;99.90;;;;;;5071858;28;20040;-49
2020/12/08 08:38:29;;;;;;;2.90;1.95;;;6.10;99.90;;;;;;5064902;28;20047;-51
2020/12/08 08:40:57;;;;;;;1.30;1.20;;;6.10;99.90;;;;;;5071604;28;20056;-52
2020/12/08 08:43:27;;;;;;;1.63;0.50;;;6.20;99.90;;;;;;5069137;28;20098;-48
2020/12/08 08:45:55;;;;;;;0.95;0.30;;;6.20;99.90;;;;;;5083589;28;20044;-48
2020/12/08 08:48:22;;;;;;;0.77;0.32;;;6.20;99.90;;;;;;5062323;28;20481;-49
2020/12/08 08:50:50;;;;;;;0.45;0.43;;;6.30;99.90;;;;;;5066479;28;20102;-49
2020/12/08 08:53:17;;;;;;;13.10;8.30;;;6.30;99.90;;;;;;5070813;28;20049;-48
2020/12/08 08:55:43;;;;;;;10.63;8.75;;;6.30;99.90;;;;;;5072244;28;20051;-49
2020/12/08 08:58:14;;;;;;;17.17;11.75;;;6.40;99.90;;;;;;5074996;28;20093;-48
2020/12/08 09:00:41;;;;;;;16.73;10.15;;;6.40;99.90;;;;;;5070988;28;20473;-49
2020/12/08 09:03:09;;;;;;;2.88;1.88;;;6.40;99.90;;;;;;5069815;28;20044;-49
2020/12/08 09:05:36;;;;;;;16.10;5.57;;;6.40;99.90;;;;;;5067850;28;20059;-49
2020/12/08 09:08:03;;;;;;;28.98;14.98;;;6.50;99.90;;;;;;5070754;28;20507;-49
2020/12/08 09:10:30;;;;;;;141.05;36.63;;;6.50;99.90;;;;;;5071639;28;20477;-48
2020/12/08 09:12:57;;;;;;;90.72;31.38;;;6.50;99.90;;;;;;5068502;28;20173;-49
2020/12/08 09:15:23;;;;;;;26.15;14.75;;;6.50;99.90;;;;;;5062225;28;20052;-49
2020/12/08 09:17:50;;;;;;;6.57;5.00;;;6.50;99.90;;;;;;5067651;28;20057;-48
2020/12/08 09:20:17;;;;;;;15.63;9.13;;;6.50;99.90;;;;;;5055220;28;20045;-49
2020/12/08 09:22:44;;;;;;;12.45;7.88;;;6.50;99.90;;;;;;5070163;28;20051;-49
2020/12/08 09:25:10;;;;;;;10.93;7.10;;;6.50;99.90;;;;;;5073408;28;20055;-49
2020/12/08 09:27:38;;;;;;;9.65;6.93;;;6.50;99.90;;;;;;5062459;28;20037;-49
2020/12/08 09:30:05;;;;;;;13.57;8.25;;;6.50;99.90;;;;;;5069342;28;20464;-49
2020/12/08 09:32:32;;;;;;;14.70;11.95;;;6.50;99.90;;;;;;5069330;28;20048;-50
2020/12/08 09:34:58;;;;;;;35.13;19.95;;;6.50;99.90;;;;;;5067840;28;20048;-49
2020/12/08 09:37:26;;;;;;;43.17;27.40;;;6.60;99.90;;;;;;5069725;28;20052;-49
2020/12/08 09:39:52;;;;;;;26.90;18.40;;;6.60;99.90;;;;;;5068968;28;20074;-49
2020/12/08 09:42:20;;;;;;;39.38;23.42;;;6.60;99.90;;;;;;5059233;28;20551;-49
2020/12/08 09:44:47;;;;;;;25.10;14.23;;;6.70;99.90;;;;;;5083370;28;20048;-49
2020/12/08 09:47:15;;;;;;;17.08;11.25;;;6.60;99.90;;;;;;5080499;28;20041;-49
2020/12/08 09:49:43;;;;;;;14.40;10.27;;;6.60;99.90;;;;;;5072243;28;20591;-49
2020/12/08 09:52:10;;;;;;;61.58;31.63;;;6.70;99.90;;;;;;5071007;28;20036;-49
2020/12/08 09:54:36;;;;;;;64.32;40.55;;;6.70;99.90;;;;;;5078817;28;20048;-49
2020/12/08 09:57:03;;;;;;;36.88;19.80;;;6.80;99.90;;;;;;5065270;28;20056;-49
2020/12/08 09:59:29;;;;;;;71.10;27.63;;;6.80;99.90;;;;;;5060823;28;20053;-49
2020/12/08 10:01:57;;;;;;;233.20;25.48;;;6.80;99.90;;;;;;5074347;28;20052;-49
2020/12/08 10:04:24;;;;;;;70.72;20.05;;;6.80;99.90;;;;;;5070170;28;20559;-52
2020/12/08 10:06:50;;;;;;;69.22;38.85;;;6.80;99.90;;;;;;5068796;28;20044;-52
2020/12/08 10:09:17;;;;;;;33.78;21.90;;;6.90;99.90;;;;;;5070284;28;20048;-50
2020/12/08 10:11:44;;;;;;;55.67;35.88;;;7.00;99.90;;;;;;5072829;28;20068;-52
2020/12/08 10:14:10;;;;;;;34.38;22.55;;;7.00;99.90;;;;;;5073886;28;20131;-50
2020/12/08 10:16:37;;;;;;;12.63;9.75;;;7.10;99.90;;;;;;5072739;28;20055;-52
2020/12/08 10:19:03;;;;;;;11.07;9.50;;;7.20;99.90;;;;;;5074550;28;20045;-51
2020/12/08 10:21:30;;;;;;;9.10;7.63;;;7.30;99.90;;;;;;5071789;28;20684;-49
2020/12/08 10:23:56;;;;;;;6.95;6.30;;;7.30;99.90;;;;;;5065338;28;20500;-50
2020/12/08 10:26:23;;;;;;;8.32;7.40;;;7.40;99.90;;;;;;5072785;28;20131;-51
2020/12/08 10:28:50;;;;;;;16.08;14.18;;;7.50;99.90;;;;;;5067589;28;20056;-50
2020/12/08 10:31:20;;;;;;;15.27;11.10;;;7.50;99.90;;;;;;5071558;28;20089;-51
2020/12/08 10:33:47;;;;;;;39.13;24.95;;;7.60;99.90;;;;;;5078700;28;20044;-51
2020/12/08 10:36:14;;;;;;;23.95;19.85;;;7.60;99.90;;;;;;5071473;28;20048;-53
2020/12/08 10:38:41;;;;;;;11.93;9.88;;;7.60;99.90;;;;;;5069273;28;20091;-51
2020/12/08 10:41:07;;;;;;;14.60;11.30;;;7.60;99.90;;;;;;5071816;28;20048;-51
2020/12/08 10:43:34;;;;;;;3.72;2.95;;;7.60;99.90;;;;;;5070876;28;20056;-50
2020/12/08 10:46:05;;;;;;;1.95;0.40;;;7.60;99.90;;;;;;5072783;28;20094;-50
2020/12/08 10:48:32;;;;;;;1.25;0.63;;;7.50;99.90;;;;;;5070862;28;20049;-50
2020/12/08 10:50:59;;;;;;;0.75;0.75;;;7.60;99.90;;;;;;5071315;28;20404;-49
2020/12/08 10:53:26;;;;;;;0.50;0.28;;;7.60;99.90;;;;;;5071312;28;20458;-49
2020/12/08 10:55:52;;;;;;;0.10;0.10;;;7.60;99.90;;;;;;5064337;28;20044;-49
2020/12/08 10:58:19;;;;;;;0.43;0.43;;;7.50;99.90;;;;;;5071232;28;20045;-49
2020/12/08 11:00:46;;;;;;;11.55;5.95;;;7.50;99.90;;;;;;5069909;28;20068;-48
2020/12/08 11:03:13;;;;;;;5.65;1.65;;;7.60;99.90;;;;;;5062455;28;20473;-48
2020/12/08 11:05:40;;;;;;;21.95;10.70;;;7.60;99.90;;;;;;5070085;28;20086;-49
2020/12/08 11:08:07;;;;;;;8.40;3.42;;;7.70;99.90;;;;;;5065832;28;20053;-52
2020/12/08 11:10:34;;;;;;;3.10;1.35;;;7.80;99.90;;;;;;5069390;28;20048;-48
2020/12/08 11:13:00;;;;;;;2.10;0.90;;;7.80;99.90;;;;;;5074943;28;20081;-49
2020/12/08 11:15:28;;;;;;;2.08;0.70;;;7.80;99.90;;;;;;5071831;28;20045;-49
2020/12/08 11:17:55;;;;;;;0.75;0.70;;;7.80;99.90;;;;;;5068606;28;20051;-49
2020/12/08 11:20:22;;;;;;;2.05;1.00;;;7.90;99.90;;;;;;5066335;28;20048;-50
2020/12/08 11:22:49;;;;;;;3.90;1.73;;;7.90;99.90;;;;;;5068148;28;20056;-51
2020/12/08 11:25:15;;;;;;;2.45;1.98;;;7.80;99.90;;;;;;5066972;28;20045;-49
2020/12/08 11:27:42;;;;;;;3.17;1.33;;;7.90;99.90;;;;;;5068181;28;20072;-49
2020/12/08 11:30:08;;;;;;;1.02;0.93;;;7.90;99.90;;;;;;5069100;28;20397;-48
2020/12/08 11:32:35;;;;;;;1.25;0.90;;;7.90;99.90;;;;;;5069060;28;20192;-48
2020/12/08 11:35:01;;;;;;;0.80;0.70;;;8.00;99.90;;;;;;5066022;28;20049;-49
2020/12/08 11:37:29;;;;;;;0.70;0.60;;;8.00;99.90;;;;;;5070894;28;20049;-49
2020/12/08 11:40:14;;;;;;;0.30;0.30;;;8.00;99.90;;;;;;5068355;28;20106;-49
2020/12/08 11:42:40;;;;;;;0.57;0.57;;;8.10;99.90;;;;;;5068637;28;20492;-49
2020/12/08 11:45:07;;;;;;;1.05;0.95;;;8.10;99.90;;;;;;5064473;28;20052;-48
2020/12/08 11:47:33;;;;;;;0.70;0.60;;;8.00;99.90;;;;;;5071309;28;20045;-53
2020/12/08 11:50:00;;;;;;;1.85;1.20;;;8.00;99.90;;;;;;5072112;28;20055;-50
2020/12/08 11:52:26;;;;;;;1.98;1.75;;;8.10;99.90;;;;;;5070613;28;20051;-51
2020/12/08 11:54:53;;;;;;;0.20;0.20;;;8.10;99.90;;;;;;5069009;28;20048;-49
2020/12/08 11:57:19;;;;;;;0.10;0.10;;;8.10;99.90;;;;;;5067421;28;20143;-49
2020/12/08 11:59:46;;;;;;;0.10;0.10;;;8.00;99.90;;;;;;5071430;28;20051;-48
2020/12/08 12:02:13;;;;;;;0.20;0.20;;;8.00;99.90;;;;;;5065443;28;20696;-50
2020/12/08 12:04:44;;;;;;;0.30;0.30;;;8.00;99.90;;;;;;5063399;28;20048;-49
2020/12/08 12:07:11;;;;;;;0.70;0.70;;;8.00;99.90;;;;;;5069409;28;20392;-48
2020/12/08 12:09:37;;;;;;;9.52;5.65;;;8.00;99.90;;;;;;5070087;28;20076;-49
2020/12/08 12:12:05;;;;;;;9.32;8.02;;;8.10;99.90;;;;;;5079980;28;20048;-49
2020/12/08 12:14:31;;;;;;;3.83;2.20;;;8.10;99.90;;;;;;5073859;28;20101;-53
2020/12/08 12:16:59;;;;;;;0.88;0.82;;;8.10;99.90;;;;;;5063138;28;20049;-51
2020/12/08 12:19:25;;;;;;;1.48;0.70;;;8.10;99.90;;;;;;5065443;28;20041;-50
2020/12/08 12:21:52;;;;;;;1.17;0.80;;;8.10;99.90;;;;;;5055985;28;20628;-52
2020/12/08 12:24:19;;;;;;;0.50;0.50;;;8.20;99.90;;;;;;5070188;28;20093;-50
2020/12/08 12:26:46;;;;;;;2.60;0.47;;;8.20;99.90;;;;;;5070571;28;20053;-52
2020/12/08 12:29:13;;;;;;;0.40;0.20;;;8.20;99.90;;;;;;5071279;28;20045;-48
2020/12/08 12:31:46;;;;;;;0.43;0.20;;;8.20;99.90;;;;;;5069205;28;20063;-49
2020/12/08 12:34:13;;;;;;;;;;;8.20;99.90;;;;;;5067510;28;20397;-49
2020/12/08 12:36:40;;;;;;;1.80;0.60;;;8.20;99.90;;;;;;5069245;28;19931;-49
2020/12/08 12:39:07;;;;;;;0.17;0.17;;;8.20;99.90;;;;;;5070999;28;20052;-50
2020/12/08 12:41:34;;;;;;;0.10;0.10;;;8.30;99.90;;;;;;5063574;28;20053;-49
2020/12/08 12:44:00;;;;;;;0.20;0.20;;;8.30;99.90;;;;;;5075030;28;20059;-49
2020/12/08 12:46:27;;;;;;;1.80;0.40;;;8.30;99.90;;;;;;5057876;28;20053;-49
2020/12/08 12:48:54;;;;;;;0.68;0.60;;;8.30;99.90;;;;;;5063647;28;20066;-49
2020/12/08 12:51:24;;;;;;;0.40;0.40;;;8.40;99.90;;;;;;5072332;28;20055;-49
2020/12/08 12:53:52;;;;;;;0.32;0.30;;;8.30;99.90;;;;;;5069271;28;20049;-48
2020/12/08 12:56:19;;;;;;;3.63;0.47;;;8.40;99.90;;;;;;5069973;28;20045;-49
2020/12/08 12:58:47;;;;;;;0.50;0.30;;;8.40;99.90;;;;;;5069759;28;20064;-49